sensor_id;sensor_type;location;lat;lon;timestamp;temperature;humidity
10472;DHT22;5283;48.876;8.962;2023-05-23T00:01:37;16.20;99.90
10472;DHT22;5283;48.876;8.962;2023-05-23T00:04:05;16.30;99.90
10472;DHT22;5283;48.876;8.962;2023-05-23T00:06:32;16.30;99.90
10472;DHT22;5283;48.876;8.962;2023-05-23T00:08:59;16.30;99.90
10472;DHT22;5283;48.876;8.962;2023-05-23T00:11:26;16.30;99.90
10472;DHT22;5283;48.876;8.962;2023-05-23T00:13:55;16.30;99.90
10472;DHT22;5283;48.876;8.962;2023-05-23T00:16:23;16.30;99.90
10472;DHT22;5283;48.876;8.962;2023-05-23T00:18:49;16.20;99.90
10472;DHT22;5283;48.876;8.962;2023-05-23T00:21:17;16.20;99.90
10472;DHT22;5283;48.876;8.962;2023-05-23T00:23:43;16.10;99.90
10472;DHT22;5283;48.876;8.962;2023-05-23T00:26:11;16.10;99.90
10472;DHT22;5283;48.876;8.962;2023-05-23T00:28:37;16.00;99.90
10472;DHT22;5283;48.876;8.962;2023-05-23T00:31:04;15.90;99.90
10472;DHT22;5283;48.876;8.962;2023-05-23T00:33:31;15.90;99.90
10472;DHT22;5283;48.876;8.962;2023-05-23T00:35:59;15.80;99.90
10472;DHT22;5283;48.876;8.962;2023-05-23T00:38:26;15.70;99.90
10472;DHT22;5283;48.876;8.962;2023-05-23T00:40:54;15.70;99.90
10472;DHT22;5283;48.876;8.962;2023-05-23T00:43:20;15.70;99.90
10472;DHT22;5283;48.876;8.962;2023-05-23T00:45:48;15.70;99.90
10472;DHT22;5283;48.876;8.962;2023-05-23T00:48:15;15.70;99.90
10472;DHT22;5283;48.876;8.962;2023-05-23T00:50:42;15.60;99.90
10472;DHT22;5283;48.876;8.962;2023-05-23T00:53:09;15.60;99.90
10472;DHT22;5283;48.876;8.962;2023-05-23T00:55:36;15.50;99.90
10472;DHT22;5283;48.876;8.962;2023-05-23T00:58:05;15.50;99.90
10472;DHT22;5283;48.876;8.962;2023-05-23T01:00:32;15.50;99.90
10472;DHT22;5283;48.876;8.962;2023-05-23T01:02:59;15.40;99.90
10472;DHT22;5283;48.876;8.962;2023-05-23T01:05:27;15.30;99.90
10472;DHT22;5283;48.876;8.962;2023-05-23T01:07:53;15.30;99.90
10472;DHT22;5283;48.876;8.962;2023-05-23T01:10:24;15.20;99.90
10472;DHT22;5283;48.876;8.962;2023-05-23T01:12:55;15.10;99.90
10472;DHT22;5283;48.876;8.962;2023-05-23T01:15:32;15.00;99.90
10472;DHT22;5283;48.876;8.962;2023-05-23T01:18:16;14.90;99.90
10472;DHT22;5283;48.876;8.962;2023-05-23T01:20:49;14.90;99.90
10472;DHT22;5283;48.876;8.962;2023-05-23T01:29:03;15.30;99.90
10472;DHT22;5283;48.876;8.962;2023-05-23T01:31:38;15.50;99.90
10472;DHT22;5283;48.876;8.962;2023-05-23T01:34:08;15.60;99.90
10472;DHT22;5283;48.876;8.962;2023-05-23T01:36:42;15.70;99.90
10472;DHT22;5283;48.876;8.962;2023-05-23T01:39:09;15.80;99.90
10472;DHT22;5283;48.876;8.962;2023-05-23T01:41:36;15.90;99.90
10472;DHT22;5283;48.876;8.962;2023-05-23T01:44:04;15.90;99.90
10472;DHT22;5283;48.876;8.962;2023-05-23T01:46:31;16.00;99.90
10472;DHT22;5283;48.876;8.962;2023-05-23T01:49:01;16.00;99.90
10472;DHT22;5283;48.876;8.962;2023-05-23T01:51:29;16.10;99.90
10472;DHT22;5283;48.876;8.962;2023-05-23T01:53:56;16.10;99.90
10472;DHT22;5283;48.876;8.962;2023-05-23T01:56:23;16.10;99.90
10472;DHT22;5283;48.876;8.962;2023-05-23T01:58:50;16.10;99.90
10472;DHT22;5283;48.876;8.962;2023-05-23T02:01:17;16.10;99.90
10472;DHT22;5283;48.876;8.962;2023-05-23T02:03:44;16.10;99.90
10472;DHT22;5283;48.876;8.962;2023-05-23T02:06:11;16.10;99.90
10472;DHT22;5283;48.876;8.962;2023-05-23T02:08:37;16.10;99.90
10472;DHT22;5283;48.876;8.962;2023-05-23T02:11:04;16.10;99.90
10472;DHT22;5283;48.876;8.962;2023-05-23T02:13:34;16.00;99.90
10472;DHT22;5283;48.876;8.962;2023-05-23T02:16:00;16.00;99.90
10472;DHT22;5283;48.876;8.962;2023-05-23T02:18:27;16.00;99.90
10472;DHT22;5283;48.876;8.962;2023-05-23T02:20:55;16.00;99.90
10472;DHT22;5283;48.876;8.962;2023-05-23T02:23:22;16.00;99.90
10472;DHT22;5283;48.876;8.962;2023-05-23T05:48:43;16.60;99.90
10472;DHT22;5283;48.876;8.962;2023-05-23T05:51:10;16.60;99.90
10472;DHT22;5283;48.876;8.962;2023-05-23T05:53:37;16.60;99.90
10472;DHT22;5283;48.876;8.962;2023-05-23T05:56:04;16.50;99.90
10472;DHT22;5283;48.876;8.962;2023-05-23T05:58:31;16.50;99.90
10472;DHT22;5283;48.876;8.962;2023-05-23T06:00:58;16.50;99.90
10472;DHT22;5283;48.876;8.962;2023-05-23T06:03:25;16.50;99.90
10472;DHT22;5283;48.876;8.962;2023-05-23T06:05:52;16.50;99.90
10472;DHT22;5283;48.876;8.962;2023-05-23T06:08:19;16.50;99.90
10472;DHT22;5283;48.876;8.962;2023-05-23T06:10:46;16.50;99.90
10472;DHT22;5283;48.876;8.962;2023-05-23T06:13:13;16.50;99.90
10472;DHT22;5283;48.876;8.962;2023-05-23T06:15:40;16.50;99.90
10472;DHT22;5283;48.876;8.962;2023-05-23T06:18:06;16.50;99.90
10472;DHT22;5283;48.876;8.962;2023-05-23T06:20:33;16.60;99.90
10472;DHT22;5283;48.876;8.962;2023-05-23T06:23:00;16.60;99.90
10472;DHT22;5283;48.876;8.962;2023-05-23T06:25:28;16.60;99.90
10472;DHT22;5283;48.876;8.962;2023-05-23T06:27:55;16.50;99.90
10472;DHT22;5283;48.876;8.962;2023-05-23T06:30:22;16.50;99.90
10472;DHT22;5283;48.876;8.962;2023-05-23T06:32:49;16.50;99.90
10472;DHT22;5283;48.876;8.962;2023-05-23T06:35:16;16.50;99.90
10472;DHT22;5283;48.876;8.962;2023-05-23T06:37:43;16.40;99.90
10472;DHT22;5283;48.876;8.962;2023-05-23T06:40:11;16.30;99.90
10472;DHT22;5283;48.876;8.962;2023-05-23T06:42:40;16.20;99.90
10472;DHT22;5283;48.876;8.962;2023-05-23T06:45:08;16.20;99.90
10472;DHT22;5283;48.876;8.962;2023-05-23T06:47:35;16.20;99.90
10472;DHT22;5283;48.876;8.962;2023-05-23T06:50:02;16.00;99.90
10472;DHT22;5283;48.876;8.962;2023-05-23T06:52:29;15.90;99.90
10472;DHT22;5283;48.876;8.962;2023-05-23T06:54:55;15.90;99.90
10472;DHT22;5283;48.876;8.962;2023-05-23T06:57:22;15.90;99.90
10472;DHT22;5283;48.876;8.962;2023-05-23T06:59:49;15.80;99.90
10472;DHT22;5283;48.876;8.962;2023-05-23T07:02:16;15.80;99.90
10472;DHT22;5283;48.876;8.962;2023-05-23T07:04:42;15.80;99.90
10472;DHT22;5283;48.876;8.962;2023-05-23T07:07:09;15.70;99.90
10472;DHT22;5283;48.876;8.962;2023-05-23T07:09:37;15.70;99.90
10472;DHT22;5283;48.876;8.962;2023-05-23T07:12:05;15.70;99.90
10472;DHT22;5283;48.876;8.962;2023-05-23T07:14:32;15.70;99.90
10472;DHT22;5283;48.876;8.962;2023-05-23T07:17:01;15.60;99.90
10472;DHT22;5283;48.876;8.962;2023-05-23T07:19:30;15.60;99.90
10472;DHT22;5283;48.876;8.962;2023-05-23T07:21:57;15.60;99.90
10472;DHT22;5283;48.876;8.962;2023-05-23T07:24:24;15.70;99.90
10472;DHT22;5283;48.876;8.962;2023-05-23T07:26:51;15.60;99.90
10472;DHT22;5283;48.876;8.962;2023-05-23T07:29:18;15.80;99.90
10472;DHT22;5283;48.876;8.962;2023-05-23T07:31:44;15.90;99.90
10472;DHT22;5283;48.876;8.962;2023-05-23T07:34:11;16.20;99.90
10472;DHT22;5283;48.876;8.962;2023-05-23T07:36:38;16.40;99.90
10472;DHT22;5283;48.876;8.962;2023-05-23T07:39:06;16.70;99.90
10472;DHT22;5283;48.876;8.962;2023-05-23T07:41:33;16.80;99.90
10472;DHT22;5283;48.876;8.962;2023-05-23T07:43:59;16.80;99.90
10472;DHT22;5283;48.876;8.962;2023-05-23T07:46:26;16.70;99.90
10472;DHT22;5283;48.876;8.962;2023-05-23T07:48:53;16.60;99.90
10472;DHT22;5283;48.876;8.962;2023-05-23T07:51:20;16.50;99.90
10472;DHT22;5283;48.876;8.962;2023-05-23T07:53:47;16.30;99.90
10472;DHT22;5283;48.876;8.962;2023-05-23T07:56:14;16.30;99.90
10472;DHT22;5283;48.876;8.962;2023-05-23T07:58:41;16.30;99.90
10472;DHT22;5283;48.876;8.962;2023-05-23T08:01:07;16.20;99.90
10472;DHT22;5283;48.876;8.962;2023-05-23T08:03:34;16.00;99.90
10472;DHT22;5283;48.876;8.962;2023-05-23T08:06:01;15.80;99.90
10472;DHT22;5283;48.876;8.962;2023-05-23T08:08:28;15.80;99.90
10472;DHT22;5283;48.876;8.962;2023-05-23T08:10:55;15.90;99.90
10472;DHT22;5283;48.876;8.962;2023-05-23T08:13:21;15.90;99.90
10472;DHT22;5283;48.876;8.962;2023-05-23T08:15:48;15.90;99.90
10472;DHT22;5283;48.876;8.962;2023-05-23T08:18:15;15.80;99.90
10472;DHT22;5283;48.876;8.962;2023-05-23T08:20:42;16.00;99.90
10472;DHT22;5283;48.876;8.962;2023-05-23T08:23:09;16.00;99.90
10472;DHT22;5283;48.876;8.962;2023-05-23T08:25:37;15.90;99.90
10472;DHT22;5283;48.876;8.962;2023-05-23T08:28:04;15.90;99.90
10472;DHT22;5283;48.876;8.962;2023-05-23T08:30:31;16.00;99.90
10472;DHT22;5283;48.876;8.962;2023-05-23T08:32:59;15.90;99.90
10472;DHT22;5283;48.876;8.962;2023-05-23T08:35:26;15.90;99.90
10472;DHT22;5283;48.876;8.962;2023-05-23T08:37:54;15.90;99.90
10472;DHT22;5283;48.876;8.962;2023-05-23T08:40:23;15.90;99.90
10472;DHT22;5283;48.876;8.962;2023-05-23T08:42:52;15.90;99.90
10472;DHT22;5283;48.876;8.962;2023-05-23T08:45:19;15.90;99.90
10472;DHT22;5283;48.876;8.962;2023-05-23T08:47:48;15.80;99.90
10472;DHT22;5283;48.876;8.962;2023-05-23T08:50:17;15.90;99.90
10472;DHT22;5283;48.876;8.962;2023-05-23T08:52:57;15.90;99.90
10472;DHT22;5283;48.876;8.962;2023-05-23T08:55:25;16.00;99.90
10472;DHT22;5283;48.876;8.962;2023-05-23T08:57:54;16.20;99.90
10472;DHT22;5283;48.876;8.962;2023-05-23T09:00:21;16.30;99.90
10472;DHT22;5283;48.876;8.962;2023-05-23T09:02:49;16.40;99.90
10472;DHT22;5283;48.876;8.962;2023-05-23T09:05:17;16.60;99.90
10472;DHT22;5283;48.876;8.962;2023-05-23T09:07:45;16.80;99.90
10472;DHT22;5283;48.876;8.962;2023-05-23T09:10:18;17.20;99.90
10472;DHT22;5283;48.876;8.962;2023-05-23T09:12:48;17.40;99.90
10472;DHT22;5283;48.876;8.962;2023-05-23T09:15:15;17.50;99.90
10472;DHT22;5283;48.876;8.962;2023-05-23T09:17:43;17.60;99.90
10472;DHT22;5283;48.876;8.962;2023-05-23T09:20:16;17.80;99.90
10472;DHT22;5283;48.876;8.962;2023-05-23T09:22:47;17.80;99.90
10472;DHT22;5283;48.876;8.962;2023-05-23T09:25:14;17.80;99.90
10472;DHT22;5283;48.876;8.962;2023-05-23T09:27:42;17.90;99.90
10472;DHT22;5283;48.876;8.962;2023-05-23T09:30:11;18.10;99.90
10472;DHT22;5283;48.876;8.962;2023-05-23T09:32:38;18.40;99.90
10472;DHT22;5283;48.876;8.962;2023-05-23T09:35:07;18.60;99.90
10472;DHT22;5283;48.876;8.962;2023-05-23T09:37:43;18.60;99.90
10472;DHT22;5283;48.876;8.962;2023-05-23T09:40:13;18.80;99.90
10472;DHT22;5283;48.876;8.962;2023-05-23T09:42:44;18.60;99.90
10472;DHT22;5283;48.876;8.962;2023-05-23T09:45:15;18.60;99.90
10472;DHT22;5283;48.876;8.962;2023-05-23T09:47:51;18.50;99.90
10472;DHT22;5283;48.876;8.962;2023-05-23T09:50:19;18.50;99.90
10472;DHT22;5283;48.876;8.962;2023-05-23T09:52:46;18.70;99.90
10472;DHT22;5283;48.876;8.962;2023-05-23T09:55:14;18.10;99.90
10472;DHT22;5283;48.876;8.962;2023-05-23T09:57:42;18.30;99.90
10472;DHT22;5283;48.876;8.962;2023-05-23T10:00:10;18.60;99.90
10472;DHT22;5283;48.876;8.962;2023-05-23T10:02:54;18.70;99.90
10472;DHT22;5283;48.876;8.962;2023-05-23T10:05:45;18.60;99.90
10472;DHT22;5283;48.876;8.962;2023-05-23T10:08:37;19.00;99.90
10472;DHT22;5283;48.876;8.962;2023-05-23T10:13:44;19.50;99.90
10472;DHT22;5283;48.876;8.962;2023-05-23T10:16:23;19.50;99.90
10472;DHT22;5283;48.876;8.962;2023-05-23T10:18:56;19.60;99.90
10472;DHT22;5283;48.876;8.962;2023-05-23T10:21:34;18.80;99.90
10472;DHT22;5283;48.876;8.962;2023-05-23T10:24:03;18.60;99.90
10472;DHT22;5283;48.876;8.962;2023-05-23T10:26:30;18.60;99.90
10472;DHT22;5283;48.876;8.962;2023-05-23T10:28:58;19.00;99.90
10472;DHT22;5283;48.876;8.962;2023-05-23T10:31:26;19.20;99.90
10472;DHT22;5283;48.876;8.962;2023-05-23T10:37:02;19.40;99.90
10472;DHT22;5283;48.876;8.962;2023-05-23T10:45:17;19.90;99.90
10472;DHT22;5283;48.876;8.962;2023-05-23T10:47:46;19.80;99.90
10472;DHT22;5283;48.876;8.962;2023-05-23T10:50:14;19.70;99.90
10472;DHT22;5283;48.876;8.962;2023-05-23T10:52:42;19.60;99.90
10472;DHT22;5283;48.876;8.962;2023-05-23T10:55:14;19.50;99.90
10472;DHT22;5283;48.876;8.962;2023-05-23T10:57:43;19.10;99.90
10472;DHT22;5283;48.876;8.962;2023-05-23T11:00:15;18.70;99.90
10472;DHT22;5283;48.876;8.962;2023-05-23T11:02:58;18.80;99.90
10472;DHT22;5283;48.876;8.962;2023-05-23T11:05:28;18.90;99.90
10472;DHT22;5283;48.876;8.962;2023-05-23T11:08:13;19.20;99.90
10472;DHT22;5283;48.876;8.962;2023-05-23T11:10:57;19.50;99.90
10472;DHT22;5283;48.876;8.962;2023-05-23T11:13:25;19.40;99.90
10472;DHT22;5283;48.876;8.962;2023-05-23T11:15:52;19.10;99.90
10472;DHT22;5283;48.876;8.962;2023-05-23T11:18:28;19.20;99.90
10472;DHT22;5283;48.876;8.962;2023-05-23T11:20:57;19.30;99.90
10472;DHT22;5283;48.876;8.962;2023-05-23T11:23:38;19.20;99.90
10472;DHT22;5283;48.876;8.962;2023-05-23T11:26:29;19.10;99.90
10472;DHT22;5283;48.876;8.962;2023-05-23T11:28:57;18.80;99.90
10472;DHT22;5283;48.876;8.962;2023-05-23T11:31:24;18.40;99.90
10472;DHT22;5283;48.876;8.962;2023-05-23T11:33:52;18.40;99.90
10472;DHT22;5283;48.876;8.962;2023-05-23T11:36:22;18.60;99.90
10472;DHT22;5283;48.876;8.962;2023-05-23T11:38:52;18.60;99.90
10472;DHT22;5283;48.876;8.962;2023-05-23T11:41:18;18.40;99.90
10472;DHT22;5283;48.876;8.962;2023-05-23T11:43:52;18.70;99.90
10472;DHT22;5283;48.876;8.962;2023-05-23T11:46:19;18.90;99.90
10472;DHT22;5283;48.876;8.962;2023-05-23T11:48:46;19.10;99.90
10472;DHT22;5283;48.876;8.962;2023-05-23T11:51:14;19.30;99.90
10472;DHT22;5283;48.876;8.962;2023-05-23T11:53:41;19.50;99.90
10472;DHT22;5283;48.876;8.962;2023-05-23T11:56:08;20.10;99.90
10472;DHT22;5283;48.876;8.962;2023-05-23T11:58:38;20.40;99.90
10472;DHT22;5283;48.876;8.962;2023-05-23T12:01:07;20.00;99.90
10472;DHT22;5283;48.876;8.962;2023-05-23T12:03:44;19.70;99.90
10472;DHT22;5283;48.876;8.962;2023-05-23T12:06:18;19.30;99.90
10472;DHT22;5283;48.876;8.962;2023-05-23T12:08:48;19.10;99.90
10472;DHT22;5283;48.876;8.962;2023-05-23T12:11:15;18.90;99.90
10472;DHT22;5283;48.876;8.962;2023-05-23T12:13:41;18.80;99.90
10472;DHT22;5283;48.876;8.962;2023-05-23T12:16:08;19.00;99.90
10472;DHT22;5283;48.876;8.962;2023-05-23T12:18:36;19.10;99.90
10472;DHT22;5283;48.876;8.962;2023-05-23T12:21:04;19.10;99.90
10472;DHT22;5283;48.876;8.962;2023-05-23T12:23:33;19.00;99.90
10472;DHT22;5283;48.876;8.962;2023-05-23T12:26:04;18.90;99.90
10472;DHT22;5283;48.876;8.962;2023-05-23T12:28:36;19.20;99.90
10472;DHT22;5283;48.876;8.962;2023-05-23T12:33:43;19.60;99.90
10472;DHT22;5283;48.876;8.962;2023-05-23T12:36:10;19.40;99.90
10472;DHT22;5283;48.876;8.962;2023-05-23T12:38:37;19.70;99.90
10472;DHT22;5283;48.876;8.962;2023-05-23T12:41:15;19.80;99.90
10472;DHT22;5283;48.876;8.962;2023-05-23T12:43:50;19.90;99.90
10472;DHT22;5283;48.876;8.962;2023-05-23T12:46:18;20.20;99.90
10472;DHT22;5283;48.876;8.962;2023-05-23T12:48:45;20.00;99.90
10472;DHT22;5283;48.876;8.962;2023-05-23T12:51:13;20.20;99.90
10472;DHT22;5283;48.876;8.962;2023-05-23T12:53:40;20.70;99.90
10472;DHT22;5283;48.876;8.962;2023-05-23T12:56:07;20.40;99.90
10472;DHT22;5283;48.876;8.962;2023-05-23T12:58:34;19.70;99.90
10472;DHT22;5283;48.876;8.962;2023-05-23T13:01:01;19.00;99.90
10472;DHT22;5283;48.876;8.962;2023-05-23T13:03:29;18.40;99.90
10472;DHT22;5283;48.876;8.962;2023-05-23T13:05:59;18.20;99.90
10472;DHT22;5283;48.876;8.962;2023-05-23T13:08:26;18.10;99.90
10472;DHT22;5283;48.876;8.962;2023-05-23T13:10:53;18.10;99.90
10472;DHT22;5283;48.876;8.962;2023-05-23T13:13:20;18.10;99.90
10472;DHT22;5283;48.876;8.962;2023-05-23T13:15:47;18.20;99.90
10472;DHT22;5283;48.876;8.962;2023-05-23T13:18:16;18.30;99.90
10472;DHT22;5283;48.876;8.962;2023-05-23T13:20:43;18.30;99.90
10472;DHT22;5283;48.876;8.962;2023-05-23T13:23:12;18.40;99.90
10472;DHT22;5283;48.876;8.962;2023-05-23T13:25:39;18.30;99.90
10472;DHT22;5283;48.876;8.962;2023-05-23T13:28:06;18.40;99.90
10472;DHT22;5283;48.876;8.962;2023-05-23T13:30:33;18.50;99.90
10472;DHT22;5283;48.876;8.962;2023-05-23T13:33:00;18.50;99.90
10472;DHT22;5283;48.876;8.962;2023-05-23T13:35:27;18.80;99.90
10472;DHT22;5283;48.876;8.962;2023-05-23T13:37:54;19.00;99.90
10472;DHT22;5283;48.876;8.962;2023-05-23T13:40:20;19.20;99.90
10472;DHT22;5283;48.876;8.962;2023-05-23T13:42:49;19.10;99.90
10472;DHT22;5283;48.876;8.962;2023-05-23T13:45:17;19.10;99.90
10472;DHT22;5283;48.876;8.962;2023-05-23T13:47:44;19.40;99.90
10472;DHT22;5283;48.876;8.962;2023-05-23T13:50:12;19.50;99.90
10472;DHT22;5283;48.876;8.962;2023-05-23T13:52:39;19.50;99.90
10472;DHT22;5283;48.876;8.962;2023-05-23T13:55:08;19.80;99.90
10472;DHT22;5283;48.876;8.962;2023-05-23T13:57:35;19.70;99.90
10472;DHT22;5283;48.876;8.962;2023-05-23T14:00:02;19.60;99.90
10472;DHT22;5283;48.876;8.962;2023-05-23T14:02:29;19.50;99.90
10472;DHT22;5283;48.876;8.962;2023-05-23T14:04:57;19.40;99.90
10472;DHT22;5283;48.876;8.962;2023-05-23T14:07:24;19.60;99.90
10472;DHT22;5283;48.876;8.962;2023-05-23T14:09:51;19.50;99.90
10472;DHT22;5283;48.876;8.962;2023-05-23T14:12:18;19.40;99.90
10472;DHT22;5283;48.876;8.962;2023-05-23T14:14:44;19.30;99.90
10472;DHT22;5283;48.876;8.962;2023-05-23T14:17:14;19.30;99.90
10472;DHT22;5283;48.876;8.962;2023-05-23T14:19:42;19.50;99.90
10472;DHT22;5283;48.876;8.962;2023-05-23T14:22:09;19.80;99.90
10472;DHT22;5283;48.876;8.962;2023-05-23T14:24:36;20.00;99.90
10472;DHT22;5283;48.876;8.962;2023-05-23T14:27:03;20.10;99.90
10472;DHT22;5283;48.876;8.962;2023-05-23T14:29:30;20.00;99.90
10472;DHT22;5283;48.876;8.962;2023-05-23T14:31:58;19.90;99.90
10472;DHT22;5283;48.876;8.962;2023-05-23T14:34:26;20.00;99.90
10472;DHT22;5283;48.876;8.962;2023-05-23T14:36:52;20.10;99.90
10472;DHT22;5283;48.876;8.962;2023-05-23T14:39:19;20.10;99.90
10472;DHT22;5283;48.876;8.962;2023-05-23T14:41:46;20.10;99.90
10472;DHT22;5283;48.876;8.962;2023-05-23T14:44:13;19.90;99.90
10472;DHT22;5283;48.876;8.962;2023-05-23T14:46:40;19.90;99.90
10472;DHT22;5283;48.876;8.962;2023-05-23T14:49:08;19.80;99.90
10472;DHT22;5283;48.876;8.962;2023-05-23T14:51:37;19.90;99.90
10472;DHT22;5283;48.876;8.962;2023-05-23T14:54:10;19.80;99.90
10472;DHT22;5283;48.876;8.962;2023-05-23T14:56:37;19.50;99.90
10472;DHT22;5283;48.876;8.962;2023-05-23T14:59:06;19.50;99.90
10472;DHT22;5283;48.876;8.962;2023-05-23T15:01:33;19.80;99.90
10472;DHT22;5283;48.876;8.962;2023-05-23T15:04:01;19.90;99.90
10472;DHT22;5283;48.876;8.962;2023-05-23T15:06:27;19.90;99.90
10472;DHT22;5283;48.876;8.962;2023-05-23T15:08:54;19.80;99.90
10472;DHT22;5283;48.876;8.962;2023-05-23T15:11:22;19.50;99.90
10472;DHT22;5283;48.876;8.962;2023-05-23T15:13:50;19.40;99.90
10472;DHT22;5283;48.876;8.962;2023-05-23T15:16:17;19.40;99.90
10472;DHT22;5283;48.876;8.962;2023-05-23T15:18:44;19.10;99.90
10472;DHT22;5283;48.876;8.962;2023-05-23T15:21:11;19.10;99.90
10472;DHT22;5283;48.876;8.962;2023-05-23T15:23:38;19.10;99.90
10472;DHT22;5283;48.876;8.962;2023-05-23T15:26:04;19.10;99.90
10472;DHT22;5283;48.876;8.962;2023-05-23T15:28:31;19.10;99.90
10472;DHT22;5283;48.876;8.962;2023-05-23T15:30:58;19.30;99.90
10472;DHT22;5283;48.876;8.962;2023-05-23T15:33:25;19.30;99.90
10472;DHT22;5283;48.876;8.962;2023-05-23T15:35:51;19.20;99.90
10472;DHT22;5283;48.876;8.962;2023-05-23T15:38:19;19.40;99.90
10472;DHT22;5283;48.876;8.962;2023-05-23T15:40:46;19.10;99.90
10472;DHT22;5283;48.876;8.962;2023-05-23T15:43:14;19.10;99.90
10472;DHT22;5283;48.876;8.962;2023-05-23T15:45:41;19.10;99.90
10472;DHT22;5283;48.876;8.962;2023-05-23T15:48:08;19.00;99.90
10472;DHT22;5283;48.876;8.962;2023-05-23T15:50:34;18.90;99.90
10472;DHT22;5283;48.876;8.962;2023-05-23T15:53:01;19.00;99.90
10472;DHT22;5283;48.876;8.962;2023-05-23T15:55:28;19.00;99.90
10472;DHT22;5283;48.876;8.962;2023-05-23T15:57:55;19.00;99.90
10472;DHT22;5283;48.876;8.962;2023-05-23T16:00:21;19.10;99.90
10472;DHT22;5283;48.876;8.962;2023-05-23T16:02:48;18.90;99.90
10472;DHT22;5283;48.876;8.962;2023-05-23T16:05:15;18.70;99.90
10472;DHT22;5283;48.876;8.962;2023-05-23T16:07:42;18.60;99.90
10472;DHT22;5283;48.876;8.962;2023-05-23T16:10:10;18.30;99.90
10472;DHT22;5283;48.876;8.962;2023-05-23T16:12:37;18.20;99.90
10472;DHT22;5283;48.876;8.962;2023-05-23T16:15:04;18.00;99.90
10472;DHT22;5283;48.876;8.962;2023-05-23T16:17:31;18.00;99.90
10472;DHT22;5283;48.876;8.962;2023-05-23T16:19:58;18.00;99.90
10472;DHT22;5283;48.876;8.962;2023-05-23T16:22:25;18.10;99.90
10472;DHT22;5283;48.876;8.962;2023-05-23T16:24:52;18.10;99.90
10472;DHT22;5283;48.876;8.962;2023-05-23T16:27:20;17.90;99.90
10472;DHT22;5283;48.876;8.962;2023-05-23T16:29:47;17.80;99.90
10472;DHT22;5283;48.876;8.962;2023-05-23T16:32:13;17.80;99.90
10472;DHT22;5283;48.876;8.962;2023-05-23T16:34:41;18.00;99.90
10472;DHT22;5283;48.876;8.962;2023-05-23T16:37:08;18.20;99.90
10472;DHT22;5283;48.876;8.962;2023-05-23T16:39:34;18.50;99.90
10472;DHT22;5283;48.876;8.962;2023-05-23T16:42:01;18.50;99.90
10472;DHT22;5283;48.876;8.962;2023-05-23T16:44:28;18.30;99.90
10472;DHT22;5283;48.876;8.962;2023-05-23T16:46:55;18.20;99.90
10472;DHT22;5283;48.876;8.962;2023-05-23T16:49:21;18.20;99.90
10472;DHT22;5283;48.876;8.962;2023-05-23T16:51:48;18.20;99.90
10472;DHT22;5283;48.876;8.962;2023-05-23T16:54:15;18.20;99.90
10472;DHT22;5283;48.876;8.962;2023-05-23T16:56:42;18.30;99.90
10472;DHT22;5283;48.876;8.962;2023-05-23T16:59:09;18.20;99.90
10472;DHT22;5283;48.876;8.962;2023-05-23T17:01:35;18.10;99.90
10472;DHT22;5283;48.876;8.962;2023-05-23T17:04:03;18.10;99.90
10472;DHT22;5283;48.876;8.962;2023-05-23T17:06:29;17.80;99.90
10472;DHT22;5283;48.876;8.962;2023-05-23T17:08:56;17.50;99.90
10472;DHT22;5283;48.876;8.962;2023-05-23T17:11:23;17.30;99.90
10472;DHT22;5283;48.876;8.962;2023-05-23T17:13:50;17.20;99.90
10472;DHT22;5283;48.876;8.962;2023-05-23T17:16:17;17.20;99.90
10472;DHT22;5283;48.876;8.962;2023-05-23T17:18:46;17.30;99.90
10472;DHT22;5283;48.876;8.962;2023-05-23T17:21:12;17.30;99.90
10472;DHT22;5283;48.876;8.962;2023-05-23T17:23:39;17.30;99.90
10472;DHT22;5283;48.876;8.962;2023-05-23T17:26:07;17.30;99.90
10472;DHT22;5283;48.876;8.962;2023-05-23T17:28:33;17.20;99.90
10472;DHT22;5283;48.876;8.962;2023-05-23T17:31:00;17.10;99.90
10472;DHT22;5283;48.876;8.962;2023-05-23T17:33:27;17.00;99.90
10472;DHT22;5283;48.876;8.962;2023-05-23T17:35:54;17.00;99.90
10472;DHT22;5283;48.876;8.962;2023-05-23T17:38:20;17.00;99.90
10472;DHT22;5283;48.876;8.962;2023-05-23T17:40:47;16.90;99.90
10472;DHT22;5283;48.876;8.962;2023-05-23T17:43:14;16.80;99.90
10472;DHT22;5283;48.876;8.962;2023-05-23T17:45:41;16.60;99.90
10472;DHT22;5283;48.876;8.962;2023-05-23T17:48:08;16.50;99.90
10472;DHT22;5283;48.876;8.962;2023-05-23T17:50:34;16.50;99.90
10472;DHT22;5283;48.876;8.962;2023-05-23T17:53:02;16.50;99.90
10472;DHT22;5283;48.876;8.962;2023-05-23T17:55:29;16.50;99.90
10472;DHT22;5283;48.876;8.962;2023-05-23T17:57:56;16.60;99.90
10472;DHT22;5283;48.876;8.962;2023-05-23T18:00:23;16.50;99.90
10472;DHT22;5283;48.876;8.962;2023-05-23T18:02:51;16.50;99.90
10472;DHT22;5283;48.876;8.962;2023-05-23T18:05:18;16.30;99.90
10472;DHT22;5283;48.876;8.962;2023-05-23T18:07:46;16.20;99.90
10472;DHT22;5283;48.876;8.962;2023-05-23T18:10:13;16.20;99.90
10472;DHT22;5283;48.876;8.962;2023-05-23T18:12:39;16.10;99.90
10472;DHT22;5283;48.876;8.962;2023-05-23T18:15:07;16.10;99.90
10472;DHT22;5283;48.876;8.962;2023-05-23T18:17:34;16.10;99.90
10472;DHT22;5283;48.876;8.962;2023-05-23T18:20:01;16.10;99.90
10472;DHT22;5283;48.876;8.962;2023-05-23T18:22:28;16.10;99.90
10472;DHT22;5283;48.876;8.962;2023-05-23T18:24:57;16.00;99.90
10472;DHT22;5283;48.876;8.962;2023-05-23T18:27:23;15.90;99.90
10472;DHT22;5283;48.876;8.962;2023-05-23T18:29:50;15.90;99.90
10472;DHT22;5283;48.876;8.962;2023-05-23T18:32:17;15.80;99.90
10472;DHT22;5283;48.876;8.962;2023-05-23T18:34:44;15.70;99.90
10472;DHT22;5283;48.876;8.962;2023-05-23T18:37:10;15.70;99.90
10472;DHT22;5283;48.876;8.962;2023-05-23T18:39:37;15.60;99.90
10472;DHT22;5283;48.876;8.962;2023-05-23T18:42:04;15.60;99.90
10472;DHT22;5283;48.876;8.962;2023-05-23T18:44:31;15.50;99.90
10472;DHT22;5283;48.876;8.962;2023-05-23T18:46:57;15.50;99.90
10472;DHT22;5283;48.876;8.962;2023-05-23T18:49:24;15.40;99.90
10472;DHT22;5283;48.876;8.962;2023-05-23T18:51:51;15.40;99.90
10472;DHT22;5283;48.876;8.962;2023-05-23T18:54:19;15.30;99.90
10472;DHT22;5283;48.876;8.962;2023-05-23T18:56:46;15.30;99.90
10472;DHT22;5283;48.876;8.962;2023-05-23T18:59:13;15.30;99.90
10472;DHT22;5283;48.876;8.962;2023-05-23T19:01:41;15.30;99.90
10472;DHT22;5283;48.876;8.962;2023-05-23T19:04:08;15.30;99.90
10472;DHT22;5283;48.876;8.962;2023-05-23T19:06:35;15.30;99.90
10472;DHT22;5283;48.876;8.962;2023-05-23T19:09:02;15.20;99.90
10472;DHT22;5283;48.876;8.962;2023-05-23T19:11:35;15.20;99.90
10472;DHT22;5283;48.876;8.962;2023-05-23T19:14:02;15.20;99.90
10472;DHT22;5283;48.876;8.962;2023-05-23T19:16:29;15.10;99.90
10472;DHT22;5283;48.876;8.962;2023-05-23T19:18:56;15.10;99.90
10472;DHT22;5283;48.876;8.962;2023-05-23T19:21:23;15.10;99.90
10472;DHT22;5283;48.876;8.962;2023-05-23T19:23:50;15.10;99.90
10472;DHT22;5283;48.876;8.962;2023-05-23T19:26:17;15.10;99.90
10472;DHT22;5283;48.876;8.962;2023-05-23T19:28:44;15.10;99.90
10472;DHT22;5283;48.876;8.962;2023-05-23T19:31:11;15.10;99.90
10472;DHT22;5283;48.876;8.962;2023-05-23T19:33:38;15.00;99.90